Aqua — WDI5797 — position and weather

sailwx.info

Track history (hours):
 
Tides and Currents Weather Stations Pressure Air Temp Water Temp Dewpoint Dewpoint Depression Visibility Wind Speed Wind Dir Waves Ship Positions

Aqua

Owner: Wakeman, Andrew L, Wilson, WY. More information available from US FCC via Universal Licensing System and Coast Guard Vessel Documentation Center.

Last reported at 2017-Nov-17 20:53 UTC. Time now 2017-Dec-13 16:56 UTC.
Position N 39°22' W 075°53'.
Warning: this ship's position is 25 days out of date.

Length 15 m.

Type: Sailing vessel. MMSI: 367712210.

Date/timePositionNaut miles runAvg speedWind from/ knotsBaromVisibWave heightAir tempDewpointWater temp
2017-Nov-17 20:53N 39°22' W 075°53'0 0.0
2017-Nov-15 19:06N 39°22' W 075°53'0 0.3
2017-Nov-15 18:49N 39°22' W 075°53'0 0.0
2017-Nov-15 18:28N 39°22' W 075°53'0 0.0
2017-Nov-15 17:58N 39°22' W 075°53'1 2.9
2017-Nov-15 17:28N 39°22' W 075°55'3 5.2
2017-Nov-15 16:56N 39°22' W 075°59'4 4.9
2017-Nov-15 16:09N 39°24' W 076°03'1 7.6
2017-Nov-15 16:00N 39°25' W 076°02'4 7.9
2017-Nov-15 15:30N 39°28' W 075°59'4 8.0
2017-Nov-15 15:00N 39°30' W 075°55'4 7.9
2017-Nov-15 14:30N 39°32' W 075°50'1 0.1
2017-Nov-14 22:12N 39°32' W 075°49'0 0.4
2017-Nov-14 22:00N 39°32' W 075°49'3 5.6
2017-Nov-14 21:30N 39°32' W 075°45'3 6.4
2017-Nov-14 21:00N 39°33' W 075°41'3 6.3
2017-Nov-14 20:30N 39°33' W 075°37'3 5.9
2017-Nov-14 20:00N 39°33' W 075°33'3 5.5
2017-Nov-14 19:30N 39°30' W 075°33'3 5.4
2017-Nov-14 19:00N 39°28' W 075°33'3 5.4
2017-Nov-14 18:30N 39°25' W 075°31'3 6.0
2017-Nov-14 18:00N 39°23' W 075°28'3 5.5
2017-Nov-14 17:30N 39°21' W 075°26'3 6.0
2017-Nov-14 16:59N 39°19' W 075°23'3 6.7
2017-Nov-14 16:30N 39°17' W 075°20'3 6.4
2017-Nov-14 16:00N 39°14' W 075°18'  
Track history (hours):
 
Tides and Currents Weather Stations Pressure Air Temp Water Temp Dewpoint Dewpoint Depression Visibility Wind Speed Wind Dir Waves Ship Positions

Aqua

Owner: Wakeman, Andrew L, Wilson, WY. More information available from US FCC via Universal Licensing System and Coast Guard Vessel Documentation Center.

Last reported at 2017-Nov-17 20:53 UTC. Time now 2017-Dec-13 16:56 UTC.
Position N 39°22' W 075°53'.
Warning: this ship's position is 25 days out of date.

Length 15 m.

Type: Sailing vessel. MMSI: 367712210.

Date/timePositionNaut miles runAvg speedWind from/ knotsBaromVisibWave heightAir tempDewpointWater temp
2017-Nov-17 20:53N 39°22' W 075°53'0 0.0
2017-Nov-15 19:06N 39°22' W 075°53'0 0.3
2017-Nov-15 18:49N 39°22' W 075°53'0 0.0
2017-Nov-15 18:28N 39°22' W 075°53'0 0.0
2017-Nov-15 17:58N 39°22' W 075°53'1 2.9
2017-Nov-15 17:28N 39°22' W 075°55'3 5.2
2017-Nov-15 16:56N 39°22' W 075°59'4 4.9
2017-Nov-15 16:09N 39°24' W 076°03'1 7.6
2017-Nov-15 16:00N 39°25' W 076°02'4 7.9
2017-Nov-15 15:30N 39°28' W 075°59'4 8.0
2017-Nov-15 15:00N 39°30' W 075°55'4 7.9
2017-Nov-15 14:30N 39°32' W 075°50'1 0.1
2017-Nov-14 22:12N 39°32' W 075°49'0 0.4
2017-Nov-14 22:00N 39°32' W 075°49'3 5.6
2017-Nov-14 21:30N 39°32' W 075°45'3 6.4
2017-Nov-14 21:00N 39°33' W 075°41'3 6.3
2017-Nov-14 20:30N 39°33' W 075°37'3 5.9
2017-Nov-14 20:00N 39°33' W 075°33'3 5.5
2017-Nov-14 19:30N 39°30' W 075°33'3 5.4
2017-Nov-14 19:00N 39°28' W 075°33'3 5.4
2017-Nov-14 18:30N 39°25' W 075°31'3 6.0
2017-Nov-14 18:00N 39°23' W 075°28'3 5.5
2017-Nov-14 17:30N 39°21' W 075°26'3 6.0
2017-Nov-14 16:59N 39°19' W 075°23'3 6.7
2017-Nov-14 16:30N 39°17' W 075°20'3 6.4
2017-Nov-14 16:00N 39°14' W 075°18'  

Dump ship's entire track history